createdAt,value
2023-03-18T00:00:10.286Z,10.18
2023-03-18T00:02:38.835Z,8.55
2023-03-18T00:05:07.785Z,7.03
2023-03-18T00:07:36.173Z,9.52
2023-03-18T00:10:04.983Z,6.43
2023-03-18T00:12:33.137Z,6.40
2023-03-18T00:14:59.960Z,9.05
2023-03-18T00:17:26.587Z,8.33
2023-03-18T00:19:53.880Z,10.52
2023-03-18T00:22:20.468Z,8.85
2023-03-18T00:24:48.931Z,6.85
2023-03-18T00:27:15.595Z,10.15
2023-03-18T00:29:42.218Z,7.17
2023-03-18T00:32:09.059Z,7.30
2023-03-18T00:34:35.574Z,7.45
2023-03-18T00:37:02.182Z,6.22
2023-03-18T00:39:32.855Z,6.68
2023-03-18T00:42:01.973Z,6.50
2023-03-18T00:44:29.062Z,8.77
2023-03-18T00:46:55.680Z,7.03
2023-03-18T00:49:22.313Z,10.20
2023-03-18T00:51:48.938Z,7.78
2023-03-18T00:54:18.204Z,6.00
2023-03-18T00:56:44.839Z,8.30
2023-03-18T00:59:11.834Z,8.73
2023-03-18T01:01:39.154Z,8.63
2023-03-18T01:04:06.953Z,7.55
2023-03-18T01:06:35.529Z,6.63
2023-03-18T01:09:04.927Z,7.82
2023-03-18T01:11:31.640Z,6.55
2023-03-18T01:13:59.545Z,6.38
2023-03-18T01:16:26.643Z,7.72
2023-03-18T01:18:53.901Z,8.60
2023-03-18T01:21:20.891Z,7.85
2023-03-18T01:23:52.586Z,7.88
2023-03-18T01:26:19.768Z,6.82
2023-03-18T01:28:47.994Z,7.50
2023-03-18T01:31:15.605Z,8.97
2023-03-18T01:33:44.072Z,7.97
2023-03-18T01:36:10.743Z,8.75
2023-03-18T01:38:37.909Z,8.82
2023-03-18T01:41:11.187Z,7.40
2023-03-18T01:43:42.732Z,12.73
2023-03-18T01:46:31.339Z,8.52
2023-03-18T01:49:02.467Z,8.63
2023-03-18T01:51:29.321Z,9.43
2023-03-18T01:53:59.462Z,7.50
2023-03-18T01:56:27.004Z,8.20
2023-03-18T01:58:57.414Z,7.35
2023-03-18T02:01:59.272Z,10.63
2023-03-18T02:04:31.818Z,11.45
2023-03-18T02:07:00.013Z,10.60
2023-03-18T02:09:26.723Z,9.60
2023-03-18T02:14:25.399Z,9.40
2023-03-18T02:17:01.166Z,9.55
2023-03-18T02:19:37.651Z,9.38
2023-03-18T02:22:10.878Z,9.03
2023-03-18T02:24:49.645Z,10.27
2023-03-18T02:27:25.693Z,11.38
2023-03-18T02:30:02.678Z,10.07
2023-03-18T02:32:34.423Z,9.23
2023-03-18T02:35:05.559Z,9.20
2023-03-18T02:37:33.446Z,9.25
2023-03-18T02:40:19.406Z,11.95
2023-03-18T02:42:47.773Z,12.52
2023-03-18T02:45:33.291Z,10.70
2023-03-18T02:48:17.735Z,13.87
2023-03-18T02:50:45.507Z,11.60
2023-03-18T02:53:13.366Z,10.57
2023-03-18T02:55:40.593Z,12.57
2023-03-18T02:58:07.939Z,11.68
2023-03-18T03:00:34.928Z,9.87
2023-03-18T03:03:03.999Z,9.57
2023-03-18T03:05:33.623Z,11.65
2023-03-18T03:08:00.861Z,11.68
2023-03-18T03:10:29.835Z,11.48
2023-03-18T03:12:57.557Z,13.63
2023-03-18T03:15:24.285Z,13.32
2023-03-18T03:17:56.426Z,13.65
2023-03-18T03:20:23.670Z,12.38
2023-03-18T03:22:51.168Z,11.35
2023-03-18T03:25:17.742Z,15.40
2023-03-18T03:27:44.255Z,15.82
2023-03-18T03:30:12.555Z,11.68
2023-03-18T03:32:39.758Z,11.18
2023-03-18T03:35:08.587Z,12.90
2023-03-18T03:37:36.872Z,13.57
2023-03-18T03:40:06.163Z,12.63
2023-03-18T03:42:32.724Z,14.18
2023-03-18T03:44:59.820Z,13.52
2023-03-18T03:47:26.293Z,11.02
2023-03-18T03:49:53.181Z,14.27
2023-03-18T03:52:20.488Z,11.27
2023-03-18T03:54:50.412Z,14.18
2023-03-18T03:57:18.202Z,14.25
2023-03-18T03:59:44.708Z,12.52
2023-03-18T04:02:43.360Z,13.67
2023-03-18T04:05:13.075Z,14.73
2023-03-18T04:07:41.343Z,14.63
2023-03-18T04:10:10.947Z,12.23
2023-03-18T04:12:39.033Z,15.18
2023-03-18T04:15:06.958Z,13.80
2023-03-18T04:17:34.760Z,14.27
2023-03-18T04:20:03.369Z,14.52
2023-03-18T04:22:32.007Z,14.02
2023-03-18T04:25:00.398Z,15.77
2023-03-18T04:27:28.176Z,14.47
2023-03-18T04:29:56.287Z,14.38
2023-03-18T04:32:28.099Z,15.02
2023-03-18T04:34:54.841Z,13.38
2023-03-18T04:37:21.489Z,15.50
2023-03-18T04:39:51.710Z,14.43
2023-03-18T04:42:18.339Z,18.48
2023-03-18T04:44:45.486Z,16.73
2023-03-18T04:47:13.670Z,19.02
2023-03-18T04:49:40.844Z,19.83
2023-03-18T04:52:08.071Z,19.27
2023-03-18T04:54:34.924Z,16.98
2023-03-18T04:57:06.725Z,18.73
2023-03-18T04:59:37.264Z,18.55
2023-03-18T05:02:06.134Z,18.60
2023-03-18T05:04:34.322Z,19.00
2023-03-18T05:07:01.495Z,20.42
2023-03-18T05:09:34.283Z,20.30
2023-03-18T05:12:01.300Z,22.15
2023-03-18T05:14:32.923Z,22.48
2023-03-18T05:17:00.536Z,20.47
2023-03-18T05:19:28.437Z,19.27
2023-03-18T05:22:10.120Z,23.55
2023-03-18T05:24:36.789Z,19.80
2023-03-18T05:27:04.974Z,21.83
2023-03-18T05:29:41.091Z,22.10
2023-03-18T05:32:26.856Z,20.02
2023-03-18T05:34:59.878Z,27.13
2023-03-18T05:37:27.358Z,24.42
2023-03-18T05:40:01.550Z,22.77
2023-03-18T05:42:28.782Z,28.00
2023-03-18T05:44:56.935Z,27.02
2023-03-18T05:47:24.920Z,24.30
2023-03-18T05:50:04.486Z,29.65
2023-03-18T05:52:33.150Z,28.90
2023-03-18T05:55:03.846Z,26.03
2023-03-18T05:57:34.556Z,31.52
2023-03-18T06:00:04.904Z,28.58
2023-03-18T06:02:42.350Z,32.45
2023-03-18T06:05:10.571Z,27.58
2023-03-18T06:07:37.264Z,28.97
2023-03-18T06:10:04.456Z,32.63
2023-03-18T06:12:31.004Z,27.45
2023-03-18T06:14:58.155Z,30.00
2023-03-18T06:17:25.816Z,31.27
2023-03-18T06:19:52.486Z,36.30
2023-03-18T06:22:19.017Z,32.05
2023-03-18T06:24:47.892Z,35.83
2023-03-18T06:27:16.026Z,34.75
2023-03-18T06:29:44.943Z,32.55
2023-03-18T06:32:14.559Z,38.50
2023-03-18T06:34:41.620Z,37.00
2023-03-18T06:37:09.632Z,40.78
2023-03-18T06:39:37.134Z,34.53
2023-03-18T06:42:07.356Z,37.95
2023-03-18T06:44:50.336Z,36.33
2023-03-18T06:47:24.210Z,34.72
2023-03-18T06:49:54.582Z,32.88
2023-03-18T06:52:28.297Z,35.08
2023-03-18T06:55:00.407Z,35.63
2023-03-18T06:57:27.612Z,30.90
2023-03-18T06:59:55.325Z,35.42
2023-03-18T07:02:23.675Z,33.03
2023-03-18T07:04:52.274Z,38.97
2023-03-18T07:07:19.455Z,36.63
2023-03-18T07:09:46.109Z,36.20
2023-03-18T07:12:14.017Z,32.97
2023-03-18T07:14:42.114Z,34.78
2023-03-18T07:17:10.694Z,31.10
2023-03-18T07:19:39.719Z,30.38
2023-03-18T07:22:06.337Z,34.73
2023-03-18T07:24:32.959Z,34.08
2023-03-18T07:26:59.552Z,34.20
2023-03-18T07:29:26.049Z,36.17
2023-03-18T07:31:52.621Z,40.22
2023-03-18T07:34:19.260Z,39.67
2023-03-18T07:36:47.208Z,32.17
2023-03-18T07:39:13.741Z,33.92
2023-03-18T07:41:40.251Z,34.20
2023-03-18T07:44:07.817Z,33.95
2023-03-18T07:46:34.522Z,35.60
2023-03-18T07:49:01.866Z,31.17
2023-03-18T07:51:28.430Z,40.28
2023-03-18T07:53:55.221Z,38.20
2023-03-18T07:56:21.820Z,34.50
2023-03-18T07:58:48.357Z,35.13
2023-03-18T08:01:18.316Z,33.97
2023-03-18T08:03:46.543Z,32.65
2023-03-18T08:06:15.261Z,35.50
2023-03-18T08:08:42.040Z,30.42
2023-03-18T08:11:09.328Z,35.87
2023-03-18T08:13:37.388Z,33.65
2023-03-18T08:16:04.407Z,30.98
2023-03-18T08:18:31.378Z,34.58
2023-03-18T08:20:57.903Z,30.60
2023-03-18T08:23:25.202Z,31.70
2023-03-18T08:25:52.688Z,33.50
2023-03-18T08:28:19.721Z,33.25
2023-03-18T08:30:46.855Z,32.35
2023-03-18T08:33:13.946Z,31.00
2023-03-18T08:35:42.721Z,28.93
2023-03-18T08:38:09.879Z,30.83
2023-03-18T08:40:36.416Z,30.92
2023-03-18T08:43:02.984Z,30.63
2023-03-18T08:45:29.725Z,26.98
2023-03-18T08:47:56.313Z,26.87
2023-03-18T08:50:28.294Z,25.83
2023-03-18T08:52:58.830Z,26.90
2023-03-18T08:55:35.144Z,27.77
2023-03-18T08:58:02.161Z,26.98
2023-03-18T09:00:28.669Z,27.30
2023-03-18T09:02:55.708Z,24.05
2023-03-18T09:05:24.569Z,27.90
2023-03-18T09:07:52.607Z,27.63
2023-03-18T09:10:19.703Z,29.58
2023-03-18T09:12:46.573Z,28.13
2023-03-18T09:15:14.915Z,33.10
2023-03-18T09:17:56.554Z,25.65
2023-03-18T09:20:28.896Z,23.77
2023-03-18T09:22:56.128Z,19.17
2023-03-18T09:25:22.814Z,21.00
2023-03-18T09:27:49.477Z,20.33
2023-03-18T09:30:16.487Z,20.20
2023-03-18T09:32:43.777Z,20.85
2023-03-18T09:35:13.099Z,22.50
2023-03-18T09:37:40.568Z,20.13
2023-03-18T09:40:08.495Z,21.98
2023-03-18T09:42:51.441Z,19.08
2023-03-18T09:45:36.608Z,14.43
2023-03-18T09:48:37.314Z,13.95
2023-03-18T09:51:37.445Z,12.23
2023-03-18T09:54:22.940Z,12.65
2023-03-18T09:56:52.629Z,13.10
2023-03-18T09:59:33.151Z,13.63
2023-03-18T10:02:01.113Z,12.43
2023-03-18T10:04:42.988Z,10.93
2023-03-18T10:07:20.559Z,11.00
2023-03-18T10:09:55.608Z,11.63
2023-03-18T10:12:32.788Z,11.35
2023-03-18T10:15:21.795Z,11.13
2023-03-18T10:17:56.256Z,10.87
2023-03-18T10:20:37.601Z,10.50
2023-03-18T10:23:26.125Z,8.40
2023-03-18T10:25:55.817Z,8.43
2023-03-18T10:28:49.145Z,10.07
2023-03-18T10:31:46.041Z,9.77
2023-03-18T10:34:18.913Z,10.07
2023-03-18T10:36:58.249Z,8.40
2023-03-18T10:39:27.578Z,10.23
2023-03-18T10:41:55.771Z,9.45
2023-03-18T10:44:32.775Z,10.40
2023-03-18T10:47:02.096Z,10.15
2023-03-18T10:49:33.645Z,9.13
2023-03-18T10:52:07.793Z,8.75
2023-03-18T10:54:46.662Z,9.63
2023-03-18T10:57:15.080Z,12.93
2023-03-18T10:59:44.662Z,13.98
2023-03-18T11:02:22.739Z,12.43
2023-03-18T11:05:23.815Z,12.35
2023-03-18T11:08:05.255Z,12.70
2023-03-18T11:10:39.654Z,12.33
2023-03-18T11:13:07.032Z,11.57
2023-03-18T11:15:40.357Z,10.85
2023-03-18T11:18:18.389Z,15.15
2023-03-18T11:21:01.359Z,13.40
2023-03-18T11:23:55.959Z,14.07
2023-03-18T11:26:24.912Z,12.95
2023-03-18T11:28:56.717Z,13.02
2023-03-18T11:31:23.509Z,11.07
2023-03-18T11:33:50.295Z,12.02
2023-03-18T11:36:19.417Z,13.53
2023-03-18T11:38:57.106Z,10.98
2023-03-18T11:41:25.700Z,11.38
2023-03-18T11:44:08.232Z,11.68
2023-03-18T11:46:43.329Z,11.85
2023-03-18T11:49:14.273Z,9.50
2023-03-18T11:51:52.291Z,10.70
2023-03-18T11:54:43.174Z,10.70
2023-03-18T11:57:10.745Z,10.32
2023-03-18T11:59:56.372Z,11.48
2023-03-18T12:02:50.485Z,9.47
2023-03-18T12:05:32.637Z,9.43
2023-03-18T12:08:31.596Z,9.73
2023-03-18T12:11:09.979Z,7.20
2023-03-18T12:13:52.332Z,10.82
2023-03-18T12:16:40.480Z,8.43
2023-03-18T12:19:29.046Z,10.98
2023-03-18T12:22:14.060Z,8.80
2023-03-18T12:25:07.410Z,9.30
2023-03-18T12:27:34.854Z,5.80
2023-03-18T12:30:53.078Z,7.83
2023-03-18T12:33:22.824Z,7.82
2023-03-18T12:36:15.349Z,7.93
2023-03-18T12:38:56.575Z,6.93
2023-03-18T12:41:27.710Z,6.82
2023-03-18T12:44:27.648Z,9.07
2023-03-18T12:47:01.975Z,7.30
2023-03-18T12:49:38.902Z,7.47
2023-03-18T12:52:09.881Z,8.13
2023-03-18T12:54:54.924Z,8.15
2023-03-18T12:57:39.864Z,7.20
2023-03-18T13:00:18.675Z,7.30
2023-03-18T13:03:06.913Z,6.07
2023-03-18T13:05:48.822Z,7.50
2023-03-18T13:08:46.932Z,7.10
2023-03-18T13:11:34.767Z,6.10
2023-03-18T13:14:14.061Z,6.78
2023-03-18T13:16:41.460Z,6.65
2023-03-18T13:19:08.785Z,6.53
2023-03-18T13:21:44.812Z,6.22
2023-03-18T13:24:28.008Z,8.30
2023-03-18T13:27:16.447Z,8.02
2023-03-18T13:29:51.100Z,5.90
2023-03-18T13:32:36.559Z,6.38
2023-03-18T13:35:32.522Z,4.95
2023-03-18T13:38:32.248Z,5.20
2023-03-18T13:41:18.108Z,5.95
2023-03-18T13:43:49.372Z,5.68
2023-03-18T13:46:28.896Z,5.43
2023-03-18T13:48:57.643Z,7.00
2023-03-18T13:51:24.087Z,5.27
2023-03-18T13:53:53.717Z,6.72
2023-03-18T13:56:40.355Z,6.07
2023-03-18T13:59:35.734Z,5.05
2023-03-18T14:02:29.650Z,7.20
2023-03-18T14:04:58.433Z,5.93
2023-03-18T14:07:26.049Z,6.57
2023-03-18T14:10:17.137Z,6.40
2023-03-18T14:12:47.311Z,8.00
2023-03-18T14:15:36.207Z,4.75
2023-03-18T14:18:02.938Z,6.67
2023-03-18T14:20:41.851Z,5.47
2023-03-18T14:23:30.064Z,5.47
2023-03-18T14:26:02.422Z,7.97
2023-03-18T14:28:35.200Z,5.38
2023-03-18T14:31:16.142Z,6.77
2023-03-18T14:34:02.697Z,5.93
2023-03-18T14:36:52.163Z,6.75
2023-03-18T14:39:46.487Z,5.95
2023-03-18T14:42:27.118Z,5.28
2023-03-18T14:44:55.730Z,10.80
2023-03-18T14:47:38.947Z,5.25
2023-03-18T14:50:14.789Z,6.63
2023-03-18T14:52:45.081Z,5.20
2023-03-18T14:55:35.693Z,6.38
2023-03-18T14:58:02.608Z,5.13
2023-03-18T15:00:33.429Z,4.25
2023-03-18T15:03:09.451Z,6.97
2023-03-18T15:05:39.977Z,4.03
2023-03-18T15:08:17.932Z,2.90
2023-03-18T15:10:49.656Z,4.70
2023-03-18T15:13:22.233Z,2.65
2023-03-18T15:15:50.416Z,5.10
2023-03-18T15:18:24.396Z,5.88
2023-03-18T15:21:04.217Z,5.70
2023-03-18T15:23:32.177Z,6.60
2023-03-18T15:25:58.697Z,5.85
2023-03-18T15:28:28.631Z,6.55
2023-03-18T15:30:59.617Z,6.00
2023-03-18T15:33:34.202Z,6.95
2023-03-18T15:36:06.077Z,6.43
2023-03-18T15:38:33.915Z,8.02
2023-03-18T15:41:04.356Z,8.90
2023-03-18T15:43:38.445Z,7.25
2023-03-18T15:46:12.999Z,8.73
2023-03-18T15:48:43.741Z,7.67
2023-03-18T15:51:43.963Z,9.32
2023-03-18T15:54:39.089Z,7.13
2023-03-18T15:57:20.982Z,8.40
2023-03-18T15:59:47.617Z,9.95
2023-03-18T16:02:15.846Z,7.33
2023-03-18T16:04:44.398Z,8.02
2023-03-18T16:07:19.017Z,7.05
2023-03-18T16:09:45.809Z,7.38
2023-03-18T16:12:17.629Z,7.18
2023-03-18T16:14:47.798Z,8.37
2023-03-18T16:17:16.770Z,6.72
2023-03-18T16:19:45.486Z,7.22
2023-03-18T16:22:14.415Z,9.10
2023-03-18T16:24:44.190Z,7.25
2023-03-18T16:27:39.301Z,7.80
2023-03-18T16:30:16.028Z,7.13
2023-03-18T16:32:42.888Z,8.45
2023-03-18T16:35:15.746Z,8.00
2023-03-18T16:37:44.665Z,7.93
2023-03-18T16:40:19.175Z,7.47
2023-03-18T16:42:49.038Z,6.47
2023-03-18T16:45:34.477Z,5.55
2023-03-18T16:48:04.842Z,5.75
2023-03-18T16:50:35.850Z,6.00
2023-03-18T16:53:03.482Z,7.60
2023-03-18T16:55:30.143Z,7.70
2023-03-18T16:57:59.512Z,8.00
2023-03-18T17:00:31.815Z,7.13
2023-03-18T17:03:01.893Z,8.80
2023-03-18T17:05:29.023Z,6.80
2023-03-18T17:07:55.935Z,6.95
2023-03-18T17:10:26.237Z,7.45
2023-03-18T17:12:57.695Z,10.80
2023-03-18T17:15:33.139Z,6.43
2023-03-18T17:18:01.020Z,7.37
2023-03-18T17:20:31.271Z,8.20
2023-03-18T17:22:59.146Z,7.20
2023-03-18T17:25:30.448Z,6.07
2023-03-18T17:28:04.713Z,7.03
2023-03-18T17:30:41.135Z,6.37
2023-03-18T17:33:38.655Z,9.82
2023-03-18T17:36:06.726Z,10.10
2023-03-18T17:38:37.427Z,12.70
2023-03-18T17:41:12.992Z,14.95
2023-03-18T17:43:40.164Z,21.87
2023-03-18T17:46:06.812Z,14.63
2023-03-18T17:48:35.420Z,9.65
2023-03-18T17:51:04.103Z,7.80
2023-03-18T17:53:34.800Z,8.15
2023-03-18T17:56:03.141Z,12.17
2023-03-18T17:58:31.959Z,11.55
2023-03-18T18:01:26.628Z,14.60
2023-03-18T18:03:55.331Z,14.00
2023-03-18T18:06:23.980Z,13.57
2023-03-18T18:08:50.827Z,12.40
2023-03-18T18:11:23.884Z,9.00
2023-03-18T18:13:52.248Z,8.70
2023-03-18T18:16:19.612Z,7.65
2023-03-18T18:18:49.386Z,5.97
2023-03-18T18:21:19.056Z,7.00
2023-03-18T18:23:45.623Z,5.80
2023-03-18T18:26:14.908Z,7.53
2023-03-18T18:28:52.217Z,7.72
2023-03-18T18:31:25.468Z,8.88
2023-03-18T18:33:52.604Z,7.33
2023-03-18T18:36:19.405Z,9.40
2023-03-18T18:38:46.174Z,8.77
2023-03-18T18:41:13.167Z,9.88
2023-03-18T18:43:39.710Z,8.52
2023-03-18T18:46:12.883Z,9.87
2023-03-18T18:48:39.595Z,6.85
2023-03-18T18:51:06.522Z,7.65
2023-03-18T18:53:36.604Z,7.47
2023-03-18T18:56:14.368Z,7.28
2023-03-18T18:58:42.058Z,6.33
2023-03-18T19:01:09.006Z,12.98
2023-03-18T19:03:35.704Z,17.73
2023-03-18T19:06:04.827Z,9.10
2023-03-18T19:08:36.392Z,8.27
2023-03-18T19:11:05.311Z,7.63
2023-03-18T19:13:34.216Z,12.75
2023-03-18T19:16:07.417Z,17.48
2023-03-18T19:18:41.974Z,11.15
2023-03-18T19:21:08.827Z,15.07
2023-03-18T19:23:35.982Z,13.07
2023-03-18T19:26:05.013Z,10.50
2023-03-18T19:28:57.615Z,9.95
2023-03-18T19:31:27.233Z,8.57
2023-03-18T19:33:54.361Z,7.53
2023-03-18T19:36:29.197Z,11.00
2023-03-18T19:38:58.463Z,9.38
2023-03-18T19:41:24.986Z,12.20
2023-03-18T19:43:51.725Z,10.43
2023-03-18T19:46:30.759Z,8.93
2023-03-18T19:48:57.374Z,8.47
2023-03-18T19:51:24.035Z,8.15
2023-03-18T19:53:50.804Z,6.72
2023-03-18T19:56:26.351Z,8.23
2023-03-18T19:58:54.981Z,7.40
2023-03-18T20:01:24.187Z,8.60
2023-03-18T20:03:57.313Z,8.63
2023-03-18T20:06:24.374Z,8.88
2023-03-18T20:08:51.595Z,12.73
2023-03-18T20:11:21.140Z,12.30
2023-03-18T20:13:48.494Z,9.93
2023-03-18T20:16:17.828Z,10.48
2023-03-18T20:18:45.207Z,8.55
2023-03-18T20:21:32.313Z,11.88
2023-03-18T20:24:04.179Z,16.25
2023-03-18T20:26:30.828Z,15.63
2023-03-18T20:28:58.662Z,14.38
2023-03-18T20:31:25.641Z,13.48
2023-03-18T20:33:52.383Z,10.48
2023-03-18T20:36:19.404Z,11.10
2023-03-18T20:38:48.872Z,8.83
2023-03-18T20:41:19.881Z,10.02
2023-03-18T20:43:50.044Z,9.57
2023-03-18T20:46:17.582Z,11.15
2023-03-18T20:48:44.799Z,10.80
2023-03-18T20:51:21.165Z,12.50
2023-03-18T20:53:49.417Z,12.93
2023-03-18T20:56:16.304Z,12.50
2023-03-18T20:58:43.038Z,15.02
2023-03-18T21:01:13.664Z,15.23
2023-03-18T21:03:40.849Z,15.70
2023-03-18T21:06:12.788Z,12.75
2023-03-18T21:08:39.637Z,12.00
2023-03-18T21:11:06.321Z,11.40
2023-03-18T21:13:36.143Z,12.50
2023-03-18T21:16:03.924Z,11.80
2023-03-18T21:18:30.556Z,10.45
2023-03-18T21:20:57.450Z,10.55
2023-03-18T21:23:27.435Z,10.13
2023-03-18T21:25:55.007Z,10.45
2023-03-18T21:28:23.644Z,11.03
2023-03-18T21:30:52.485Z,7.43
2023-03-18T21:33:21.313Z,9.75
2023-03-18T21:35:48.238Z,7.35
2023-03-18T21:38:14.770Z,10.35
2023-03-18T21:40:41.420Z,8.50
2023-03-18T21:43:38.130Z,6.07
2023-03-18T21:46:09.891Z,6.40
2023-03-18T21:48:36.467Z,4.40
2023-03-18T21:51:03.099Z,3.75
2023-03-18T21:53:29.833Z,6.47
2023-03-18T21:55:56.344Z,5.43
2023-03-18T21:58:25.642Z,5.80
2023-03-18T22:00:59.749Z,5.60
2023-03-18T22:03:28.660Z,7.25
2023-03-18T22:05:55.760Z,5.87
2023-03-18T22:08:22.932Z,5.25
2023-03-18T22:10:51.278Z,5.93
2023-03-18T22:13:19.019Z,6.32
2023-03-18T22:15:51.615Z,6.65
2023-03-18T22:18:19.158Z,6.40
2023-03-18T22:20:47.379Z,6.50
2023-03-18T22:23:16.439Z,5.20
2023-03-18T22:25:44.512Z,6.18
2023-03-18T22:28:12.082Z,5.03
2023-03-18T22:30:40.051Z,4.60
2023-03-18T22:33:06.775Z,3.67
2023-03-18T22:35:33.914Z,5.97
2023-03-18T22:38:00.812Z,5.13
2023-03-18T22:40:30.063Z,6.47
2023-03-18T22:42:59.577Z,3.80
2023-03-18T22:45:33.654Z,4.05
2023-03-18T22:48:04.642Z,6.35
2023-03-18T22:50:33.643Z,6.20
2023-03-18T22:53:08.285Z,4.50
2023-03-18T22:55:38.597Z,7.67
2023-03-18T22:58:13.740Z,11.05
2023-03-18T23:00:44.700Z,10.38
2023-03-18T23:03:17.559Z,12.80
2023-03-18T23:05:48.540Z,6.63
2023-03-18T23:08:16.040Z,6.53
2023-03-18T23:10:44.031Z,6.32
2023-03-18T23:13:27.568Z,6.95
2023-03-18T23:15:54.390Z,5.75
2023-03-18T23:18:21.469Z,4.95
2023-03-18T23:20:50.175Z,4.70
2023-03-18T23:23:17.487Z,5.63
2023-03-18T23:25:45.475Z,4.40
2023-03-18T23:28:12.961Z,4.63
2023-03-18T23:30:42.007Z,3.45
2023-03-18T23:33:09.338Z,7.57
2023-03-18T23:35:37.429Z,4.53
2023-03-18T23:38:05.742Z,4.20
2023-03-18T23:40:32.548Z,3.83
2023-03-18T23:42:59.464Z,4.93
2023-03-18T23:45:27.857Z,3.10
2023-03-18T23:47:55.984Z,3.55
2023-03-18T23:50:23.327Z,2.33
2023-03-18T23:52:50.356Z,4.30
2023-03-18T23:55:33.176Z,4.28
2023-03-18T23:58:00.445Z,3.73
